Current Weather

Michigan City Muni-Phillips Fld

Michigan City, Indiana (KMGC)

Report from: Monday, February 6, 2023 1:35 AM EST
Current time: Monday, February 6, 2023 2:08 AM EST

Nearby weather
Weather history
Weather forecast

Temperature-1.0°C (30.2°F)
Dew point-4.0°C (24.8°F)
Winds Calm
Visibility10 mi. (16.1 km)
Clouds Sky clear
Altimeter30.17 in.Hg (1022 mB)
Relative humidity80 %
Density altitude-2,176 ft. (-663 m)
Remarks Fully automated report
Automated weather observing station with precipitation discriminator
Flight conditions Visual Meteorological Conditions
Raw dataKMGC 060635Z AUTO 00000KT 10SM CLR M01/M04 A3017 RMK AO2
An error has occurred. This application may no longer respond until reloaded. Reload 🗙